Terminal Aerodrome Forecast
Issued by NWS Twin Cities, MN

Home | Current Version | Previous Version | Text Only | Print | Product List | Glossary On
Versions: 1 2 3 4 5 6 7 8 9 10 11 12
000
FTUS43 KMPX 161128
TAFSTC
TAF
KSTC 161128Z 1612/1712 32009KT P6SM BKN010 OVC020
      TEMPO 1612/1615 SCT010
     FM161900 31006KT P6SM SCT015 BKN050
     FM170000 23006KT P6SM SCT100
     FM170900 20007KT P6SM SCT250=

USA.gov is the U.S. government's official web portal to all federal, state and local government web resources and services.